createdAt,value
2023-01-19T00:00:57.894Z,14.60
2023-01-19T00:03:24.830Z,14.65
2023-01-19T00:05:52.702Z,14.70
2023-01-19T00:08:19.645Z,14.65
2023-01-19T00:10:48.506Z,14.60
2023-01-19T00:13:16.159Z,14.57
2023-01-19T00:15:45.042Z,14.60
2023-01-19T00:18:12.095Z,14.58
2023-01-19T00:20:40.134Z,14.61
2023-01-19T00:23:10.562Z,14.59
2023-01-19T00:25:42.835Z,14.57
2023-01-19T00:28:15.326Z,14.32
2023-01-19T00:30:42.571Z,14.42
2023-01-19T00:33:10.741Z,14.50
2023-01-19T00:35:37.630Z,14.50
2023-01-19T00:38:04.685Z,14.50
2023-01-19T00:40:31.677Z,14.42
2023-01-19T00:43:00.267Z,14.35
2023-01-19T00:45:27.551Z,14.34
2023-01-19T00:47:57.504Z,14.45
2023-01-19T00:50:26.363Z,14.44
2023-01-19T00:52:54.937Z,14.43
2023-01-19T00:55:22.915Z,14.33
2023-01-19T00:57:50.176Z,14.36
2023-01-19T01:00:19.835Z,14.33
2023-01-19T01:02:48.878Z,14.35
2023-01-19T01:05:16.983Z,14.51
2023-01-19T01:07:45.459Z,14.60
2023-01-19T01:10:15.594Z,14.67
2023-01-19T01:12:56.105Z,14.57
2023-01-19T01:15:27.527Z,14.53
2023-01-19T01:17:55.015Z,14.65
2023-01-19T01:20:28.136Z,14.57
2023-01-19T01:22:56.729Z,14.60
2023-01-19T01:25:26.117Z,14.53
2023-01-19T01:27:53.865Z,14.51
2023-01-19T01:30:21.423Z,14.51
2023-01-19T01:32:49.081Z,14.55
2023-01-19T01:35:17.072Z,14.60
2023-01-19T01:37:44.148Z,14.46
2023-01-19T01:40:14.198Z,14.55
2023-01-19T01:42:42.693Z,14.59
2023-01-19T01:45:31.616Z,14.63
2023-01-19T01:48:13.091Z,14.56
2023-01-19T01:51:10.171Z,14.65
2023-01-19T01:53:38.623Z,14.66
2023-01-19T01:56:10.373Z,14.70
2023-01-19T01:58:38.994Z,14.69
2023-01-19T02:01:25.854Z,14.66
2023-01-19T02:03:57.394Z,14.64
2023-01-19T02:06:24.896Z,14.72
2023-01-19T02:09:21.488Z,14.62
2023-01-19T02:12:08.077Z,14.71
2023-01-19T02:14:39.014Z,14.66
2023-01-19T02:17:06.883Z,14.66
2023-01-19T02:19:42.339Z,14.58
2023-01-19T02:22:24.070Z,14.65
2023-01-19T02:24:51.701Z,14.73
2023-01-19T02:27:19.483Z,14.60
2023-01-19T02:29:46.544Z,14.75
2023-01-19T02:32:13.463Z,14.71
2023-01-19T02:34:40.570Z,14.69
2023-01-19T02:37:13.310Z,14.62
2023-01-19T02:39:52.351Z,14.67
2023-01-19T02:42:32.422Z,14.58
2023-01-19T02:45:00.092Z,14.62
2023-01-19T02:47:27.256Z,14.58
2023-01-19T02:49:58.715Z,14.58
2023-01-19T02:52:26.951Z,14.56
2023-01-19T02:55:18.249Z,14.57
2023-01-19T02:57:53.401Z,14.53
2023-01-19T03:00:33.185Z,14.45
2023-01-19T03:03:13.515Z,14.34
2023-01-19T03:05:46.119Z,14.65
2023-01-19T03:08:57.789Z,14.52
2023-01-19T03:11:30.479Z,14.57
2023-01-19T03:14:22.186Z,14.66
2023-01-19T03:16:58.374Z,14.64
2023-01-19T03:19:28.901Z,14.65
2023-01-19T03:22:05.626Z,14.70
2023-01-19T03:24:38.462Z,14.69
2023-01-19T03:27:20.846Z,14.84
2023-01-19T03:29:53.265Z,14.64
2023-01-19T03:32:24.134Z,14.64
2023-01-19T03:34:53.682Z,14.60
2023-01-19T03:37:21.690Z,14.60
2023-01-19T03:39:48.757Z,14.63
2023-01-19T03:42:17.969Z,14.55
2023-01-19T03:44:46.004Z,14.45
2023-01-19T03:47:14.824Z,14.49
2023-01-19T03:49:44.303Z,14.49
2023-01-19T03:52:13.018Z,14.41
2023-01-19T03:54:41.129Z,14.38
2023-01-19T03:57:08.347Z,14.35
2023-01-19T03:59:35.250Z,14.24
2023-01-19T04:02:02.336Z,14.10
2023-01-19T04:04:29.316Z,14.28
2023-01-19T04:06:56.181Z,14.27
2023-01-19T04:09:23.041Z,14.14
2023-01-19T04:11:49.925Z,14.01
2023-01-19T04:14:16.986Z,14.02
2023-01-19T04:16:43.789Z,14.02
2023-01-19T04:19:10.744Z,13.93
2023-01-19T04:21:37.585Z,13.97
2023-01-19T04:24:04.655Z,14.01
2023-01-19T04:26:31.471Z,14.04
2023-01-19T04:28:58.560Z,13.96
2023-01-19T04:31:25.482Z,13.94
2023-01-19T04:33:52.337Z,13.92
2023-01-19T04:36:19.242Z,13.94
2023-01-19T04:38:46.714Z,13.88
2023-01-19T04:41:13.843Z,13.86
2023-01-19T04:43:41.016Z,13.79
2023-01-19T04:46:07.877Z,13.73
2023-01-19T04:48:35.087Z,13.72
2023-01-19T04:51:02.260Z,13.65
2023-01-19T04:53:29.099Z,13.63
2023-01-19T04:55:55.988Z,13.61
2023-01-19T04:58:23.260Z,13.60
2023-01-19T05:00:51.314Z,13.57
2023-01-19T05:03:19.563Z,13.61
2023-01-19T05:05:46.826Z,13.66
2023-01-19T05:08:13.890Z,13.57
2023-01-19T05:10:40.785Z,13.61
2023-01-19T05:13:08.869Z,13.61
2023-01-19T05:15:35.747Z,13.62
2023-01-19T05:18:02.690Z,13.60
2023-01-19T05:20:29.688Z,13.67
2023-01-19T05:22:56.553Z,13.72
2023-01-19T05:25:23.541Z,13.75
2023-01-19T05:27:50.533Z,13.77
2023-01-19T05:30:17.772Z,13.73
2023-01-19T05:32:44.819Z,13.70
2023-01-19T05:35:13.501Z,13.71
2023-01-19T05:37:40.594Z,13.63
2023-01-19T05:40:08.518Z,13.85
2023-01-19T05:42:37.270Z,13.85
2023-01-19T05:45:04.987Z,13.90
2023-01-19T05:47:32.074Z,13.94
2023-01-19T05:49:59.240Z,13.99
2023-01-19T05:52:26.119Z,13.90
2023-01-19T05:54:54.729Z,14.01
2023-01-19T05:57:22.630Z,14.04
2023-01-19T05:59:49.849Z,14.13
2023-01-19T06:02:16.831Z,14.07
2023-01-19T06:04:43.624Z,14.04
2023-01-19T06:07:10.628Z,14.11
2023-01-19T06:09:37.502Z,14.12
2023-01-19T06:12:04.847Z,14.06
2023-01-19T06:14:32.565Z,14.00
2023-01-19T06:16:59.551Z,14.09
2023-01-19T06:19:26.512Z,14.02
2023-01-19T06:21:53.357Z,14.04
2023-01-19T06:24:20.567Z,14.11
2023-01-19T06:26:47.519Z,14.05
2023-01-19T06:29:14.738Z,14.13
2023-01-19T06:31:42.496Z,14.13
2023-01-19T06:34:09.946Z,14.18
2023-01-19T06:36:37.052Z,14.11
2023-01-19T06:39:05.943Z,14.15
2023-01-19T06:41:34.084Z,14.17
2023-01-19T06:44:01.467Z,14.13
2023-01-19T06:46:28.777Z,14.09
2023-01-19T06:48:55.943Z,14.18
2023-01-19T06:51:24.067Z,14.25
2023-01-19T06:53:51.022Z,14.27
2023-01-19T06:56:17.940Z,14.22
2023-01-19T06:58:47.643Z,14.24
2023-01-19T07:01:14.896Z,14.28
2023-01-19T07:03:41.806Z,14.26
2023-01-19T07:06:09.053Z,14.36
2023-01-19T07:08:37.048Z,14.51
2023-01-19T07:11:25.978Z,14.52
2023-01-19T07:13:57.037Z,14.53
2023-01-19T07:16:24.368Z,14.68
2023-01-19T07:18:52.057Z,14.82
2023-01-19T07:21:19.391Z,14.72
2023-01-19T07:23:49.810Z,14.77
2023-01-19T07:26:19.954Z,14.94
2023-01-19T07:28:48.317Z,15.02
2023-01-19T07:31:16.041Z,15.21
2023-01-19T07:33:42.962Z,15.30
2023-01-19T07:36:10.471Z,15.32
2023-01-19T07:38:37.944Z,15.47
2023-01-19T07:41:07.644Z,15.45
2023-01-19T07:43:34.987Z,15.59
2023-01-19T07:46:05.200Z,15.67
2023-01-19T07:48:32.392Z,15.81
2023-01-19T07:51:01.252Z,15.90
2023-01-19T07:53:28.305Z,15.87
2023-01-19T07:55:56.686Z,15.86
2023-01-19T07:58:25.143Z,15.87
2023-01-19T08:00:52.461Z,16.12
2023-01-19T08:03:19.363Z,16.12
2023-01-19T08:05:51.324Z,16.25
2023-01-19T08:08:18.474Z,16.25
2023-01-19T08:10:46.458Z,16.36
2023-01-19T08:13:13.520Z,16.40
2023-01-19T08:15:40.551Z,16.51
2023-01-19T08:18:09.957Z,16.47
2023-01-19T08:20:37.241Z,16.59
2023-01-19T08:23:05.544Z,16.69
2023-01-19T08:25:38.215Z,16.71
2023-01-19T08:28:07.039Z,16.79
2023-01-19T08:30:34.506Z,16.83
2023-01-19T08:33:04.600Z,16.91
2023-01-19T08:35:33.031Z,16.93
2023-01-19T08:38:01.354Z,17.02
2023-01-19T08:40:29.904Z,17.08
2023-01-19T08:43:04.808Z,17.01
2023-01-19T08:45:31.722Z,17.02
2023-01-19T08:47:59.526Z,17.06
2023-01-19T08:50:30.687Z,16.97
2023-01-19T08:52:58.802Z,17.20
2023-01-19T08:55:26.815Z,17.19
2023-01-19T08:57:57.876Z,17.19
2023-01-19T09:00:25.577Z,17.33
2023-01-19T09:02:52.920Z,17.32
2023-01-19T09:05:20.175Z,17.41
2023-01-19T09:07:51.803Z,17.42
2023-01-19T09:10:19.210Z,17.41
2023-01-19T09:12:46.574Z,17.44
2023-01-19T09:15:17.467Z,17.61
2023-01-19T09:17:45.622Z,17.49
2023-01-19T09:20:14.027Z,17.46
2023-01-19T09:22:40.968Z,17.63
2023-01-19T09:25:08.601Z,17.68
2023-01-19T09:27:36.154Z,17.71
2023-01-19T09:30:04.380Z,17.81
2023-01-19T09:32:31.398Z,17.84
2023-01-19T09:34:58.475Z,17.94
2023-01-19T09:37:25.392Z,18.01
2023-01-19T09:39:52.384Z,18.00
2023-01-19T09:42:44.954Z,18.07
2023-01-19T09:45:18.046Z,18.10
2023-01-19T09:47:47.019Z,18.14
2023-01-19T09:50:28.631Z,18.20
2023-01-19T09:53:14.007Z,18.28
2023-01-19T09:55:42.765Z,18.20
2023-01-19T09:58:15.777Z,18.30
2023-01-19T10:00:47.913Z,18.37
2023-01-19T10:03:16.693Z,18.35
2023-01-19T10:05:55.658Z,18.24
2023-01-19T10:08:42.189Z,18.37
2023-01-19T10:11:51.263Z,18.37
2023-01-19T10:15:07.938Z,18.44
2023-01-19T10:17:56.320Z,18.45
2023-01-19T10:20:33.495Z,18.58
2023-01-19T10:23:02.166Z,18.48
2023-01-19T10:25:30.197Z,18.48
2023-01-19T10:28:00.769Z,18.60
2023-01-19T10:30:30.281Z,18.42
2023-01-19T10:32:57.314Z,18.31
2023-01-19T10:35:25.217Z,18.48
2023-01-19T10:38:02.814Z,18.65
2023-01-19T10:40:57.486Z,18.50
2023-01-19T10:43:44.797Z,18.46
2023-01-19T10:46:21.449Z,18.56
2023-01-19T10:48:50.752Z,18.54
2023-01-19T10:51:18.150Z,18.66
2023-01-19T10:54:00.485Z,18.47
2023-01-19T10:56:38.567Z,18.62
2023-01-19T10:59:07.115Z,18.48
2023-01-19T11:01:37.178Z,18.47
2023-01-19T11:04:27.544Z,18.40
2023-01-19T11:07:14.096Z,18.59
2023-01-19T11:09:40.949Z,18.69
2023-01-19T11:12:16.974Z,18.62
2023-01-19T11:14:44.078Z,18.60
2023-01-19T11:17:28.158Z,18.59
2023-01-19T11:20:00.958Z,18.64
2023-01-19T11:22:33.723Z,18.78
2023-01-19T11:25:03.482Z,18.75
2023-01-19T11:27:32.677Z,18.78
2023-01-19T11:30:22.047Z,18.71
2023-01-19T11:32:49.459Z,18.82
2023-01-19T11:35:50.047Z,18.60
2023-01-19T11:38:23.398Z,18.68
2023-01-19T11:40:58.318Z,18.77
2023-01-19T11:43:39.740Z,18.82
2023-01-19T11:46:15.495Z,18.76
2023-01-19T11:49:04.528Z,18.78
2023-01-19T11:51:45.179Z,18.74
2023-01-19T11:54:24.099Z,18.88
2023-01-19T11:56:52.322Z,18.90
2023-01-19T11:59:19.985Z,18.85
2023-01-19T12:01:56.410Z,18.91
2023-01-19T12:04:32.164Z,18.85
2023-01-19T12:07:05.150Z,18.95
2023-01-19T12:09:50.971Z,18.55
2023-01-19T12:12:31.268Z,18.77
2023-01-19T12:15:29.149Z,18.90
2023-01-19T12:18:00.918Z,18.82
2023-01-19T12:20:44.517Z,18.77
2023-01-19T12:23:11.345Z,18.67
2023-01-19T12:25:54.944Z,18.70
2023-01-19T12:28:28.742Z,18.58
2023-01-19T12:30:57.388Z,18.63
2023-01-19T12:33:39.114Z,18.57
2023-01-19T12:36:10.244Z,18.48
2023-01-19T12:38:46.074Z,18.69
2023-01-19T12:41:17.255Z,18.56
2023-01-19T12:43:44.404Z,18.56
2023-01-19T12:46:29.000Z,18.63
2023-01-19T12:49:20.327Z,18.61
2023-01-19T12:51:49.076Z,18.59
2023-01-19T12:54:28.867Z,18.50
2023-01-19T12:57:09.244Z,18.56
2023-01-19T12:59:39.268Z,18.51
2023-01-19T13:02:18.115Z,18.57
2023-01-19T13:05:07.113Z,18.55
2023-01-19T13:08:02.026Z,18.59
2023-01-19T13:10:54.080Z,18.55
2023-01-19T13:13:33.279Z,18.71
2023-01-19T13:16:20.205Z,18.60
2023-01-19T13:18:51.807Z,18.71
2023-01-19T13:21:33.066Z,18.53
2023-01-19T13:24:06.162Z,18.61
2023-01-19T13:26:40.646Z,18.54
2023-01-19T13:29:37.497Z,18.59
2023-01-19T13:32:13.028Z,18.51
2023-01-19T13:34:44.509Z,18.41
2023-01-19T13:37:18.356Z,18.38
2023-01-19T13:39:50.236Z,18.26
2023-01-19T13:42:25.031Z,18.23
2023-01-19T13:44:54.723Z,18.23
2023-01-19T13:47:43.943Z,18.09
2023-01-19T13:50:21.530Z,18.04
2023-01-19T13:52:53.983Z,17.91
2023-01-19T13:55:21.069Z,17.91
2023-01-19T13:57:50.431Z,17.88
2023-01-19T14:00:27.998Z,17.90
2023-01-19T14:03:24.061Z,17.96
2023-01-19T14:05:53.303Z,17.81
2023-01-19T14:08:22.475Z,17.85
2023-01-19T14:10:52.510Z,17.88
2023-01-19T14:13:23.418Z,17.72
2023-01-19T14:15:55.733Z,17.69
2023-01-19T14:18:25.563Z,17.64
2023-01-19T14:20:55.921Z,17.51
2023-01-19T14:23:47.739Z,17.34
2023-01-19T14:26:53.165Z,17.45
2023-01-19T14:29:31.737Z,17.40
2023-01-19T14:32:15.804Z,17.36
2023-01-19T14:34:48.636Z,17.30
2023-01-19T14:37:22.322Z,17.26
2023-01-19T14:39:56.762Z,17.18
2023-01-19T14:42:37.440Z,17.16
2023-01-19T14:45:20.688Z,17.08
2023-01-19T14:47:56.488Z,17.11
2023-01-19T14:50:25.466Z,17.08
2023-01-19T14:52:55.064Z,16.90
2023-01-19T14:55:49.877Z,16.84
2023-01-19T14:58:19.574Z,16.78
2023-01-19T15:00:48.326Z,16.68
2023-01-19T15:03:15.707Z,16.57
2023-01-19T15:05:44.970Z,16.56
2023-01-19T15:08:16.932Z,16.54
2023-01-19T15:10:44.728Z,16.49
2023-01-19T15:13:19.163Z,16.40
2023-01-19T15:15:46.452Z,16.38
2023-01-19T15:18:19.797Z,16.26
2023-01-19T15:20:49.226Z,16.31
2023-01-19T15:23:16.055Z,16.27
2023-01-19T15:25:42.981Z,16.29
2023-01-19T15:28:20.095Z,16.32
2023-01-19T15:30:47.129Z,16.19
2023-01-19T15:33:26.956Z,16.16
2023-01-19T15:35:54.195Z,16.08
2023-01-19T15:38:21.179Z,16.04
2023-01-19T15:40:51.436Z,15.99
2023-01-19T15:43:18.747Z,16.00
2023-01-19T15:46:00.564Z,15.94
2023-01-19T15:48:27.429Z,15.82
2023-01-19T15:50:54.376Z,15.86
2023-01-19T15:53:23.906Z,15.82
2023-01-19T15:55:53.160Z,15.71
2023-01-19T15:58:20.746Z,15.72
2023-01-19T16:05:55.940Z,15.60
2023-01-19T16:08:22.946Z,15.58
2023-01-19T16:10:49.765Z,15.59
2023-01-19T16:13:16.665Z,15.55
2023-01-19T16:15:43.628Z,15.63
2023-01-19T16:18:12.021Z,15.60
2023-01-19T16:20:39.003Z,15.54
2023-01-19T16:23:21.127Z,15.55
2023-01-19T16:26:07.985Z,15.51
2023-01-19T16:28:36.458Z,15.44
2023-01-19T16:31:04.425Z,15.36
2023-01-19T16:33:31.304Z,15.33
2023-01-19T16:35:58.461Z,15.27
2023-01-19T16:38:28.542Z,15.33
2023-01-19T16:40:55.457Z,15.39
2023-01-19T16:43:22.400Z,15.36
2023-01-19T16:46:00.784Z,15.38
2023-01-19T16:48:28.502Z,15.27
2023-01-19T16:51:05.321Z,15.10
2023-01-19T16:53:37.355Z,15.24
2023-01-19T16:56:13.738Z,15.28
2023-01-19T16:58:47.683Z,15.28
2023-01-19T17:01:20.363Z,15.20
2023-01-19T17:03:48.010Z,15.22
2023-01-19T17:06:22.828Z,15.31
2023-01-19T17:08:51.310Z,15.28
2023-01-19T17:11:24.437Z,15.13
2023-01-19T17:13:57.753Z,15.21
2023-01-19T17:16:25.300Z,15.17
2023-01-19T17:18:52.922Z,15.13
2023-01-19T17:21:20.283Z,15.09
2023-01-19T17:23:49.525Z,15.16
2023-01-19T17:26:17.805Z,15.15
2023-01-19T17:28:44.761Z,15.12
2023-01-19T17:31:14.954Z,15.19
2023-01-19T17:33:45.139Z,15.06
2023-01-19T17:36:14.898Z,15.01
2023-01-19T17:38:42.503Z,15.05
2023-01-19T17:41:27.253Z,15.04
2023-01-19T17:43:56.324Z,15.07
2023-01-19T17:46:25.809Z,15.27
2023-01-19T17:48:59.981Z,15.23
2023-01-19T17:51:28.124Z,15.26
2023-01-19T17:53:55.260Z,15.31
2023-01-19T17:56:29.953Z,15.27
2023-01-19T17:58:58.245Z,15.18
2023-01-19T18:01:27.653Z,15.17
2023-01-19T18:03:55.373Z,15.07
2023-01-19T18:06:22.641Z,15.16
2023-01-19T18:08:50.694Z,15.04
2023-01-19T18:11:19.321Z,14.99
2023-01-19T18:13:48.391Z,15.08
2023-01-19T18:16:19.462Z,15.00
2023-01-19T18:18:46.386Z,14.96
2023-01-19T18:21:14.787Z,15.04
2023-01-19T18:23:45.835Z,14.97
2023-01-19T18:26:15.393Z,15.00
2023-01-19T18:28:42.521Z,14.90
2023-01-19T18:31:11.558Z,14.88
2023-01-19T18:33:39.042Z,14.85
2023-01-19T18:36:06.612Z,14.88
2023-01-19T18:38:34.901Z,14.80
2023-01-19T18:41:08.046Z,14.82
2023-01-19T18:43:36.690Z,14.82
2023-01-19T18:46:04.122Z,14.74
2023-01-19T18:48:32.149Z,14.81
2023-01-19T18:51:05.763Z,14.77
2023-01-19T18:53:33.195Z,14.79
2023-01-19T18:56:04.434Z,14.69
2023-01-19T18:58:33.786Z,14.63
2023-01-19T19:01:02.793Z,14.77
2023-01-19T19:03:31.755Z,14.70
2023-01-19T19:06:05.304Z,14.58
2023-01-19T19:08:34.740Z,14.64
2023-01-19T19:11:03.201Z,14.66
2023-01-19T19:13:31.482Z,14.75
2023-01-19T19:16:07.862Z,14.72
2023-01-19T19:18:37.604Z,14.73
2023-01-19T19:21:10.741Z,14.76
2023-01-19T19:23:39.477Z,14.64
2023-01-19T19:26:10.966Z,14.59
2023-01-19T19:28:40.035Z,14.64
2023-01-19T19:31:12.937Z,14.63
2023-01-19T19:33:41.858Z,14.57
2023-01-19T19:36:11.409Z,14.59
2023-01-19T19:38:42.342Z,14.57
2023-01-19T19:41:15.312Z,14.69
2023-01-19T19:43:44.588Z,14.64
2023-01-19T19:46:17.283Z,14.66
2023-01-19T19:48:46.117Z,14.52
2023-01-19T19:51:19.076Z,14.53
2023-01-19T19:53:51.372Z,14.54
2023-01-19T19:56:22.990Z,14.55
2023-01-19T19:58:53.127Z,14.45
2023-01-19T20:01:33.138Z,14.54
2023-01-19T20:04:10.029Z,14.58
2023-01-19T20:06:41.321Z,14.49
2023-01-19T20:09:13.346Z,14.53
2023-01-19T20:11:44.196Z,14.59
2023-01-19T20:14:17.703Z,14.52
2023-01-19T20:16:45.429Z,14.32
2023-01-19T20:19:13.781Z,14.46
2023-01-19T20:21:43.408Z,14.41
2023-01-19T20:24:20.348Z,14.49
2023-01-19T20:26:53.764Z,14.57
2023-01-19T20:29:22.128Z,14.64
2023-01-19T20:31:58.810Z,14.57
2023-01-19T20:34:32.935Z,14.67
2023-01-19T20:37:02.195Z,14.68
2023-01-19T20:39:35.314Z,14.74
2023-01-19T20:42:03.275Z,14.75
2023-01-19T20:44:30.381Z,14.75
2023-01-19T20:46:57.492Z,14.70
2023-01-19T20:49:24.315Z,14.56
2023-01-19T20:51:52.350Z,14.54
2023-01-19T20:54:22.847Z,14.55
2023-01-19T20:56:50.002Z,14.47
2023-01-19T20:59:17.722Z,14.48
2023-01-19T21:01:46.030Z,14.46
2023-01-19T21:04:13.161Z,14.45
2023-01-19T21:06:44.355Z,14.39
2023-01-19T21:09:11.822Z,14.34
2023-01-19T21:11:41.611Z,14.44
2023-01-19T21:14:08.760Z,14.44
2023-01-19T21:16:36.382Z,14.56
2023-01-19T21:19:04.157Z,14.55
2023-01-19T21:21:32.909Z,14.59
2023-01-19T21:24:02.215Z,14.58
2023-01-19T21:26:33.754Z,14.55
2023-01-19T21:29:02.413Z,14.56
2023-01-19T21:31:30.371Z,14.44
2023-01-19T21:33:57.887Z,14.58
2023-01-19T21:36:25.364Z,14.54
2023-01-19T21:38:52.617Z,14.50
2023-01-19T21:41:19.891Z,14.46
2023-01-19T21:43:48.110Z,14.46
2023-01-19T21:46:20.788Z,14.45
2023-01-19T21:48:48.208Z,14.44
2023-01-19T21:51:15.829Z,14.43
2023-01-19T21:53:43.091Z,14.46
2023-01-19T21:56:11.655Z,14.49
2023-01-19T21:58:38.915Z,14.42
2023-01-19T22:01:13.883Z,14.44
2023-01-19T22:03:41.758Z,14.33
2023-01-19T22:06:13.572Z,14.28
2023-01-19T22:08:41.180Z,14.29
2023-01-19T22:11:10.568Z,14.21
2023-01-19T22:13:41.225Z,14.19
2023-01-19T22:16:12.370Z,14.09
2023-01-19T22:18:41.955Z,14.09
2023-01-19T22:21:08.950Z,14.12
2023-01-19T22:23:36.340Z,14.09
2023-01-19T22:26:04.447Z,14.14
2023-01-19T22:28:31.568Z,14.15
2023-01-19T22:31:15.582Z,14.12
2023-01-19T22:33:43.566Z,14.13
2023-01-19T22:36:13.692Z,14.08
2023-01-19T22:38:41.177Z,14.06
2023-01-19T22:41:12.882Z,14.05
2023-01-19T22:43:39.833Z,14.09
2023-01-19T22:46:08.650Z,14.13
2023-01-19T22:48:36.010Z,14.14
2023-01-19T22:51:03.738Z,14.19
2023-01-19T22:53:31.881Z,14.22
2023-01-19T22:55:58.746Z,14.25
2023-01-19T22:58:25.561Z,14.36
2023-01-19T23:00:52.583Z,14.35
2023-01-19T23:03:19.562Z,14.33
2023-01-19T23:05:46.526Z,14.49
2023-01-19T23:08:13.462Z,14.70
2023-01-19T23:10:40.335Z,14.59
2023-01-19T23:13:07.226Z,14.75
2023-01-19T23:15:34.935Z,14.84
2023-01-19T23:18:01.933Z,14.72
2023-01-19T23:20:28.829Z,14.68
2023-01-19T23:22:55.795Z,14.73
2023-01-19T23:25:22.683Z,14.65
2023-01-19T23:27:49.635Z,14.60
2023-01-19T23:30:17.203Z,14.67
2023-01-19T23:32:48.315Z,14.61
2023-01-19T23:35:16.311Z,14.66
2023-01-19T23:37:43.348Z,14.57
2023-01-19T23:40:11.240Z,14.62
2023-01-19T23:42:38.228Z,14.64
2023-01-19T23:45:05.625Z,14.63
2023-01-19T23:47:35.648Z,14.63
2023-01-19T23:50:05.799Z,14.65
2023-01-19T23:52:32.653Z,14.60
2023-01-19T23:54:59.518Z,14.64
2023-01-19T23:57:26.981Z,14.69
2023-01-19T23:59:53.751Z,14.71
